createdAt,value
2023-03-24T00:01:28.486Z,63.30
2023-03-24T00:03:57.694Z,63.25
2023-03-24T00:06:26.867Z,63.50
2023-03-24T00:08:55.629Z,63.59
2023-03-24T00:11:25.652Z,63.82
2023-03-24T00:13:58.658Z,63.77
2023-03-24T00:16:27.627Z,63.76
2023-03-24T00:18:56.257Z,63.74
2023-03-24T00:21:26.655Z,63.59
2023-03-24T00:23:58.743Z,63.85
2023-03-24T00:26:28.770Z,63.72
2023-03-24T00:28:59.091Z,63.85
2023-03-24T00:31:27.605Z,63.72
2023-03-24T00:33:56.043Z,63.52
2023-03-24T00:36:25.991Z,63.68
2023-03-24T00:38:55.300Z,63.50
2023-03-24T00:41:25.028Z,63.54
2023-03-24T00:43:58.618Z,63.49
2023-03-24T00:46:30.218Z,63.78
2023-03-24T00:49:03.752Z,63.34
2023-03-24T00:51:34.607Z,63.34
2023-03-24T00:54:03.306Z,63.44
2023-03-24T00:56:33.722Z,63.76
2023-03-24T00:59:03.683Z,63.71
2023-03-24T01:01:37.766Z,63.92
2023-03-24T01:04:07.244Z,63.70
2023-03-24T01:06:37.784Z,63.96
2023-03-24T01:09:07.977Z,64.29
2023-03-24T01:11:40.107Z,64.42
2023-03-24T01:14:11.903Z,64.46
2023-03-24T01:16:40.575Z,64.68
2023-03-24T01:19:09.975Z,64.94
2023-03-24T01:21:39.131Z,64.77
2023-03-24T01:24:08.525Z,65.00
2023-03-24T01:26:37.360Z,65.27
2023-03-24T01:29:06.203Z,65.51
2023-03-24T01:31:36.181Z,65.64
2023-03-24T01:34:04.981Z,65.81
2023-03-24T01:36:33.689Z,65.69
2023-03-24T01:39:02.585Z,66.15
2023-03-24T01:41:37.652Z,66.36
2023-03-24T01:44:31.884Z,66.18
2023-03-24T01:47:02.214Z,66.48
2023-03-24T01:49:36.913Z,66.33
2023-03-24T01:52:09.492Z,66.61
2023-03-24T01:54:42.600Z,66.74
2023-03-24T01:57:15.963Z,66.51
2023-03-24T01:59:48.423Z,66.37
2023-03-24T02:02:19.088Z,66.77
2023-03-24T02:04:50.595Z,66.78
2023-03-24T02:07:27.324Z,66.92
2023-03-24T02:09:55.972Z,67.08
2023-03-24T02:12:24.733Z,67.19
2023-03-24T02:14:53.403Z,67.13
2023-03-24T02:17:41.221Z,67.33
2023-03-24T02:20:48.057Z,67.26
2023-03-24T02:23:47.980Z,67.23
2023-03-24T02:26:45.497Z,67.38
2023-03-24T02:30:06.765Z,67.46
2023-03-24T02:33:26.267Z,68.06
2023-03-24T02:36:29.416Z,67.87
2023-03-24T02:39:33.996Z,67.92
2023-03-24T02:42:05.817Z,68.61
2023-03-24T02:44:42.556Z,67.90
2023-03-24T02:47:18.367Z,67.56
2023-03-24T02:49:57.120Z,67.54
2023-03-24T02:52:34.667Z,68.10
2023-03-24T02:55:11.550Z,67.98
2023-03-24T02:57:48.173Z,67.75
2023-03-24T03:00:21.893Z,67.70
2023-03-24T03:02:52.661Z,68.59
2023-03-24T03:05:28.580Z,68.14
2023-03-24T03:08:00.786Z,68.03
2023-03-24T03:10:34.534Z,68.09
2023-03-24T03:13:06.410Z,68.42
2023-03-24T03:15:38.750Z,67.91
2023-03-24T03:18:11.369Z,67.56
2023-03-24T03:20:51.049Z,67.71
2023-03-24T03:23:24.789Z,67.80
2023-03-24T03:25:57.695Z,68.25
2023-03-24T03:28:30.032Z,67.81
2023-03-24T03:31:01.221Z,67.41
2023-03-24T03:33:37.080Z,67.34
2023-03-24T03:36:11.291Z,67.45
2023-03-24T03:38:47.932Z,67.34
2023-03-24T03:41:19.315Z,67.38
2023-03-24T03:43:50.234Z,67.33
2023-03-24T03:46:20.127Z,67.20
2023-03-24T03:48:48.716Z,67.63
2023-03-24T03:51:18.495Z,67.46
2023-03-24T03:53:51.437Z,67.43
2023-03-24T03:56:24.685Z,67.37
2023-03-24T03:58:53.639Z,67.40
2023-03-24T04:01:26.678Z,67.35
2023-03-24T04:04:21.887Z,67.16
2023-03-24T04:07:08.364Z,67.20
2023-03-24T04:09:40.640Z,67.22
2023-03-24T04:12:33.469Z,66.98
2023-03-24T04:15:20.292Z,67.09
2023-03-24T04:18:04.054Z,66.88
2023-03-24T04:20:46.882Z,67.13
2023-03-24T04:23:27.621Z,66.60
2023-03-24T04:26:06.359Z,67.02
2023-03-24T04:28:43.409Z,66.97
2023-03-24T04:31:19.110Z,66.79
2023-03-24T04:33:51.718Z,66.89
2023-03-24T04:36:27.671Z,66.63
2023-03-24T04:38:58.425Z,66.68
2023-03-24T04:41:30.691Z,66.53
2023-03-24T04:44:01.260Z,66.80
2023-03-24T04:46:29.679Z,66.49
2023-03-24T04:48:58.006Z,66.60
2023-03-24T04:51:28.893Z,66.77
2023-03-24T04:53:57.420Z,66.70
2023-03-24T04:56:34.820Z,66.79
2023-03-24T04:59:04.668Z,67.03
2023-03-24T05:01:33.098Z,66.84
2023-03-24T05:04:02.342Z,66.85
2023-03-24T05:06:30.726Z,66.66
2023-03-24T05:09:00.132Z,66.52
2023-03-24T05:11:29.249Z,66.40
2023-03-24T05:13:57.674Z,66.40
2023-03-24T05:16:27.619Z,66.19
2023-03-24T05:18:55.979Z,65.93
2023-03-24T05:21:24.607Z,65.80
2023-03-24T05:23:53.221Z,65.99
2023-03-24T05:26:21.528Z,65.90
2023-03-24T05:28:50.199Z,65.38
2023-03-24T05:31:18.586Z,65.63
2023-03-24T05:33:48.840Z,65.55
2023-03-24T05:36:17.649Z,65.75
2023-03-24T05:38:46.400Z,65.82
2023-03-24T05:41:14.667Z,65.82
2023-03-24T05:43:42.974Z,65.76
2023-03-24T05:46:11.264Z,65.34
2023-03-24T05:48:39.642Z,65.03
2023-03-24T05:51:10.898Z,65.02
2023-03-24T05:53:39.174Z,64.73
2023-03-24T05:56:12.010Z,65.17
2023-03-24T05:58:40.586Z,65.13
2023-03-24T06:01:10.522Z,64.84
2023-03-24T06:03:40.701Z,65.15
2023-03-24T06:06:15.002Z,65.47
2023-03-24T06:08:45.286Z,65.54
2023-03-24T06:11:14.273Z,64.75
2023-03-24T06:16:28.711Z,65.11
2023-03-24T06:18:57.255Z,65.42
2023-03-24T06:21:32.450Z,65.28
2023-03-24T06:24:03.399Z,65.18
2023-03-24T06:26:32.043Z,65.84
2023-03-24T06:29:02.244Z,65.57
2023-03-24T06:31:30.893Z,66.07
2023-03-24T06:33:59.611Z,66.20
2023-03-24T06:36:29.595Z,66.50
2023-03-24T06:38:58.368Z,66.65
2023-03-24T06:41:26.663Z,66.46
2023-03-24T06:43:55.078Z,66.82
2023-03-24T06:46:23.458Z,67.33
2023-03-24T06:48:52.055Z,67.51
2023-03-24T06:51:20.981Z,67.84
2023-03-24T06:53:51.100Z,67.77
2023-03-24T06:56:21.258Z,67.51
2023-03-24T06:58:49.661Z,67.49
2023-03-24T07:01:18.087Z,67.73
2023-03-24T07:03:46.499Z,67.14
2023-03-24T07:06:14.957Z,67.29
2023-03-24T07:08:43.282Z,67.39
2023-03-24T07:11:13.692Z,67.78
2023-03-24T07:13:42.382Z,67.93
2023-03-24T07:16:10.999Z,67.88
2023-03-24T07:18:39.453Z,68.26
2023-03-24T07:21:08.758Z,68.23
2023-03-24T07:23:37.380Z,67.91
2023-03-24T07:26:05.860Z,68.40
2023-03-24T07:28:35.778Z,68.09
2023-03-24T07:31:05.153Z,67.88
2023-03-24T07:33:34.052Z,68.25
2023-03-24T07:36:02.644Z,68.12
2023-03-24T07:38:31.159Z,68.33
2023-03-24T07:40:59.919Z,67.56
2023-03-24T07:43:28.530Z,67.17
2023-03-24T07:45:58.361Z,67.56
2023-03-24T07:48:27.341Z,67.63
2023-03-24T07:50:56.059Z,67.36
2023-03-24T07:53:24.823Z,67.24
2023-03-24T07:55:53.430Z,66.82
2023-03-24T07:58:21.948Z,67.21
2023-03-24T08:00:50.396Z,67.48
2023-03-24T08:03:25.725Z,67.45
2023-03-24T08:05:55.331Z,67.32
2023-03-24T08:08:23.733Z,66.38
2023-03-24T08:10:52.059Z,66.20
2023-03-24T08:13:20.855Z,65.96
2023-03-24T08:15:49.372Z,65.44
2023-03-24T08:18:17.841Z,66.58
2023-03-24T08:20:47.595Z,66.63
2023-03-24T08:23:16.796Z,66.19
2023-03-24T08:25:47.786Z,64.93
2023-03-24T08:28:16.983Z,64.86
2023-03-24T08:30:45.548Z,65.38
2023-03-24T08:33:14.836Z,65.46
2023-03-24T08:35:45.674Z,64.44
2023-03-24T08:38:18.828Z,64.71
2023-03-24T08:40:49.114Z,64.98
2023-03-24T08:43:17.940Z,65.33
2023-03-24T08:45:46.542Z,65.02
2023-03-24T08:48:15.142Z,65.26
2023-03-24T08:50:44.124Z,64.89
2023-03-24T08:53:14.218Z,65.25
2023-03-24T08:55:43.811Z,65.19
2023-03-24T08:58:15.811Z,64.34
2023-03-24T09:00:45.241Z,64.46
2023-03-24T09:03:18.468Z,64.13
2023-03-24T09:05:48.173Z,64.21
2023-03-24T09:08:19.957Z,63.01
2023-03-24T09:10:48.441Z,62.52
2023-03-24T09:13:17.208Z,63.06
2023-03-24T09:15:49.069Z,63.12
2023-03-24T09:18:18.602Z,63.13
2023-03-24T09:20:48.169Z,62.56
2023-03-24T09:23:18.209Z,62.83
2023-03-24T09:25:47.224Z,61.93
2023-03-24T09:28:16.375Z,62.26
2023-03-24T09:30:45.086Z,62.61
2023-03-24T09:33:14.053Z,62.25
2023-03-24T09:35:43.267Z,62.56
2023-03-24T09:38:12.640Z,62.48
2023-03-24T09:40:44.226Z,62.33
2023-03-24T09:43:23.940Z,62.81
2023-03-24T09:45:55.317Z,62.70
2023-03-24T09:48:33.219Z,62.26
2023-03-24T09:51:06.880Z,62.45
2023-03-24T09:53:39.088Z,61.92
2023-03-24T09:56:14.933Z,61.81
2023-03-24T09:58:45.003Z,61.84
2023-03-24T10:01:18.021Z,62.11
2023-03-24T10:03:47.543Z,61.40
2023-03-24T10:06:23.305Z,62.11
2023-03-24T10:08:56.745Z,62.36
2023-03-24T10:11:36.545Z,63.27
2023-03-24T10:14:20.459Z,63.81
2023-03-24T10:16:52.106Z,64.10
2023-03-24T10:19:30.529Z,63.76
2023-03-24T10:22:05.614Z,62.96
2023-03-24T10:24:42.172Z,63.05
2023-03-24T10:27:19.510Z,62.82
2023-03-24T10:29:51.050Z,63.06
2023-03-24T10:32:22.975Z,63.04
2023-03-24T10:34:57.836Z,63.57
2023-03-24T10:37:26.403Z,63.86
2023-03-24T10:39:54.766Z,63.62
2023-03-24T10:42:27.533Z,63.40
2023-03-24T10:44:56.229Z,63.99
2023-03-24T10:47:28.625Z,63.74
2023-03-24T10:50:00.968Z,64.15
2023-03-24T10:52:42.356Z,64.23
2023-03-24T10:55:19.420Z,64.01
2023-03-24T10:57:52.139Z,63.85
2023-03-24T11:00:27.351Z,64.66
2023-03-24T11:03:00.406Z,64.58
2023-03-24T11:05:31.914Z,63.86
2023-03-24T11:08:16.142Z,64.43
2023-03-24T11:10:44.690Z,64.70
2023-03-24T11:13:21.338Z,64.40
2023-03-24T11:15:56.255Z,64.32
2023-03-24T11:18:24.662Z,64.79
2023-03-24T11:20:57.404Z,65.12
2023-03-24T11:23:31.141Z,64.86
2023-03-24T11:26:09.804Z,64.84
2023-03-24T11:28:42.775Z,64.18
2023-03-24T11:31:19.346Z,63.28
2023-03-24T11:33:53.004Z,59.55
2023-03-24T11:36:48.913Z,61.12
2023-03-24T11:39:23.436Z,61.22
2023-03-24T11:42:16.815Z,60.81
2023-03-24T11:44:49.397Z,60.63
2023-03-24T11:47:30.395Z,61.04
2023-03-24T11:50:15.974Z,61.42
2023-03-24T11:52:48.900Z,61.86
2023-03-24T11:55:19.771Z,62.42
2023-03-24T11:57:55.208Z,63.20
2023-03-24T12:00:32.317Z,63.30
2023-03-24T12:03:43.690Z,62.74
2023-03-24T12:06:29.974Z,61.85
2023-03-24T12:09:16.160Z,62.04
2023-03-24T12:11:58.458Z,62.37
2023-03-24T12:14:36.639Z,61.85
2023-03-24T12:17:12.767Z,61.86
2023-03-24T12:20:12.483Z,61.37
2023-03-24T12:22:51.989Z,60.66
2023-03-24T12:25:41.278Z,59.62
2023-03-24T12:28:24.816Z,60.33
2023-03-24T12:31:05.030Z,59.15
2023-03-24T12:33:46.052Z,60.12
2023-03-24T12:36:25.401Z,61.04
2023-03-24T12:39:05.277Z,61.05
2023-03-24T12:41:49.792Z,61.18
2023-03-24T12:44:55.444Z,61.34
2023-03-24T12:47:35.986Z,61.91
2023-03-24T12:50:19.475Z,61.60
2023-03-24T12:53:09.177Z,60.71
2023-03-24T12:55:44.630Z,60.13
2023-03-24T12:58:19.230Z,60.30
2023-03-24T13:00:58.906Z,58.83
2023-03-24T13:03:33.390Z,58.86
2023-03-24T13:06:17.534Z,57.14
2023-03-24T13:08:55.676Z,58.55
2023-03-24T13:11:33.549Z,58.14
2023-03-24T13:14:06.458Z,57.73
2023-03-24T13:16:37.551Z,58.29
2023-03-24T13:19:13.956Z,58.16
2023-03-24T13:21:45.836Z,57.53
2023-03-24T13:24:15.570Z,57.54
2023-03-24T13:26:54.353Z,55.77
2023-03-24T13:29:41.855Z,56.82
2023-03-24T13:32:26.108Z,56.86
2023-03-24T13:34:59.361Z,56.53
2023-03-24T13:37:37.451Z,56.97
2023-03-24T13:40:12.288Z,57.26
2023-03-24T13:42:47.408Z,57.23
2023-03-24T13:45:27.564Z,56.64
2023-03-24T13:48:08.387Z,56.13
2023-03-24T13:50:40.972Z,56.15
2023-03-24T13:53:16.586Z,55.62
2023-03-24T13:55:51.012Z,56.19
2023-03-24T13:58:22.736Z,56.33
2023-03-24T14:01:06.789Z,55.33
2023-03-24T14:03:36.949Z,55.91
2023-03-24T14:06:09.172Z,55.16
2023-03-24T14:09:06.083Z,54.70
2023-03-24T14:11:45.829Z,55.01
2023-03-24T14:14:23.404Z,54.18
2023-03-24T14:17:00.268Z,53.25
2023-03-24T14:19:32.767Z,52.90
2023-03-24T14:22:12.883Z,54.19
2023-03-24T14:24:44.833Z,54.06
2023-03-24T14:27:34.895Z,53.08
2023-03-24T14:30:07.693Z,53.65
2023-03-24T14:32:41.874Z,53.79
2023-03-24T14:35:24.531Z,54.42
2023-03-24T14:37:55.496Z,54.68
2023-03-24T14:40:32.303Z,54.68
2023-03-24T14:43:18.292Z,54.58
2023-03-24T14:46:05.137Z,53.71
2023-03-24T14:48:38.213Z,53.60
2023-03-24T14:51:36.649Z,53.51
2023-03-24T14:54:08.604Z,53.60
2023-03-24T14:56:43.545Z,53.16
2023-03-24T14:59:23.033Z,53.28
2023-03-24T15:02:01.052Z,53.49
2023-03-24T15:04:30.960Z,53.80
2023-03-24T15:06:59.206Z,53.71
2023-03-24T15:09:28.228Z,52.59
2023-03-24T15:12:01.835Z,52.46
2023-03-24T15:14:30.430Z,52.68
2023-03-24T15:17:02.223Z,52.97
2023-03-24T15:19:33.833Z,53.31
2023-03-24T15:22:04.767Z,53.14
2023-03-24T15:24:35.886Z,53.34
2023-03-24T15:27:25.096Z,53.01
2023-03-24T15:29:59.236Z,52.43
2023-03-24T15:32:32.251Z,52.89
2023-03-24T15:35:05.808Z,52.17
2023-03-24T15:37:39.227Z,52.00
2023-03-24T15:40:24.740Z,52.51
2023-03-24T15:42:54.794Z,53.05
2023-03-24T15:45:28.035Z,53.18
2023-03-24T15:47:57.760Z,52.92
2023-03-24T15:50:32.737Z,50.49
2023-03-24T15:53:03.266Z,51.18
2023-03-24T15:55:34.999Z,51.49
2023-03-24T15:58:23.305Z,52.42
2023-03-24T16:00:55.859Z,52.58
2023-03-24T16:03:26.925Z,52.35
2023-03-24T16:05:58.011Z,52.22
2023-03-24T16:08:30.938Z,52.26
2023-03-24T16:11:01.316Z,52.29
2023-03-24T16:13:31.680Z,51.82
2023-03-24T16:16:02.058Z,52.30
2023-03-24T16:18:33.959Z,52.48
2023-03-24T16:21:02.772Z,52.71
2023-03-24T16:23:32.178Z,52.69
2023-03-24T16:26:00.491Z,52.91
2023-03-24T16:28:32.729Z,53.04
2023-03-24T16:31:05.121Z,53.15
2023-03-24T16:33:34.055Z,52.84
2023-03-24T16:36:02.704Z,52.75
2023-03-24T16:38:33.327Z,52.96
2023-03-24T16:41:02.074Z,53.47
2023-03-24T16:43:34.303Z,53.44
2023-03-24T16:46:04.502Z,53.23
2023-03-24T16:48:33.861Z,53.52
2023-03-24T16:51:02.173Z,53.94
2023-03-24T16:53:30.530Z,54.09
2023-03-24T16:55:58.905Z,54.56
2023-03-24T16:58:27.679Z,54.87
2023-03-24T17:00:58.876Z,55.12
2023-03-24T17:03:29.774Z,55.16
2023-03-24T17:05:58.923Z,55.32
2023-03-24T17:08:27.249Z,55.48
2023-03-24T17:10:55.586Z,55.96
2023-03-24T17:13:26.031Z,55.84
2023-03-24T17:15:54.619Z,55.87
2023-03-24T17:18:24.537Z,55.93
2023-03-24T17:20:52.847Z,55.95
2023-03-24T17:23:22.123Z,56.21
2023-03-24T17:25:50.400Z,56.46
2023-03-24T17:28:18.994Z,56.63
2023-03-24T17:30:47.546Z,56.58
2023-03-24T17:33:16.485Z,56.98
2023-03-24T17:35:47.741Z,57.05
2023-03-24T17:38:17.837Z,56.99
2023-03-24T17:40:47.341Z,57.22
2023-03-24T17:43:15.940Z,57.14
2023-03-24T17:45:44.269Z,57.34
2023-03-24T17:48:12.603Z,57.57
2023-03-24T17:50:42.091Z,58.14
2023-03-24T17:53:13.909Z,58.02
2023-03-24T17:55:42.330Z,58.64
2023-03-24T17:58:11.071Z,58.69
2023-03-24T18:00:39.427Z,58.88
2023-03-24T18:03:07.810Z,58.78
2023-03-24T18:05:36.084Z,59.03
2023-03-24T18:08:05.979Z,59.29
2023-03-24T18:10:36.389Z,59.38
2023-03-24T18:13:05.390Z,59.23
2023-03-24T18:15:34.525Z,59.35
2023-03-24T18:18:03.614Z,59.38
2023-03-24T18:20:32.204Z,59.41
2023-03-24T18:23:01.228Z,59.45
2023-03-24T18:25:29.942Z,59.50
2023-03-24T18:27:59.930Z,59.63
2023-03-24T18:30:28.315Z,59.69
2023-03-24T18:33:01.345Z,59.62
2023-03-24T18:35:30.612Z,59.89
2023-03-24T18:37:58.949Z,60.06
2023-03-24T18:40:27.512Z,60.12
2023-03-24T18:42:55.784Z,60.30
2023-03-24T18:45:25.538Z,60.04
2023-03-24T18:47:53.882Z,60.30
2023-03-24T18:50:22.254Z,60.42
2023-03-24T18:52:50.657Z,60.66
2023-03-24T18:55:20.928Z,60.79
2023-03-24T18:57:49.268Z,60.87
2023-03-24T19:00:20.293Z,60.97
2023-03-24T19:02:50.400Z,60.97
2023-03-24T19:05:19.062Z,60.72
2023-03-24T19:07:48.708Z,60.97
2023-03-24T19:10:17.111Z,60.95
2023-03-24T19:12:45.435Z,60.97
2023-03-24T19:15:14.702Z,61.25
2023-03-24T19:17:43.113Z,61.19
2023-03-24T19:20:14.110Z,61.37
2023-03-24T19:22:42.474Z,61.54
2023-03-24T19:25:11.072Z,61.56
2023-03-24T19:27:39.355Z,61.75
2023-03-24T19:30:09.234Z,61.87
2023-03-24T19:32:37.764Z,61.92
2023-03-24T19:35:07.256Z,62.24
2023-03-24T19:37:37.772Z,62.21
2023-03-24T19:40:08.980Z,62.63
2023-03-24T19:42:39.934Z,62.63
2023-03-24T19:45:09.405Z,62.78
2023-03-24T19:47:38.213Z,62.96
2023-03-24T19:50:07.874Z,63.13
2023-03-24T19:52:37.997Z,63.32
2023-03-24T19:55:07.296Z,63.22
2023-03-24T19:57:35.841Z,63.82
2023-03-24T20:00:06.282Z,63.96
2023-03-24T20:02:35.475Z,63.60
2023-03-24T20:05:03.989Z,64.01
2023-03-24T20:07:32.316Z,63.92
2023-03-24T20:10:02.112Z,64.19
2023-03-24T20:12:31.000Z,64.12
2023-03-24T20:14:59.361Z,64.30
2023-03-24T20:17:28.866Z,64.22
2023-03-24T20:19:57.450Z,64.10
2023-03-24T20:22:25.852Z,63.48
2023-03-24T20:24:54.277Z,63.55
2023-03-24T20:27:24.092Z,63.39
2023-03-24T20:29:52.350Z,63.40
2023-03-24T20:32:20.646Z,63.21
2023-03-24T20:34:50.801Z,62.89
2023-03-24T20:37:19.107Z,62.96
2023-03-24T20:39:47.474Z,62.62
2023-03-24T20:42:17.696Z,62.58
2023-03-24T20:44:47.431Z,62.82
2023-03-24T20:47:16.097Z,62.78
2023-03-24T20:49:44.450Z,62.01
2023-03-24T20:52:14.417Z,61.23
2023-03-24T20:54:42.866Z,60.74
2023-03-24T20:57:12.170Z,61.07
2023-03-24T20:59:40.593Z,61.29
2023-03-24T21:02:12.562Z,61.56
2023-03-24T21:04:41.079Z,61.51
2023-03-24T21:07:09.773Z,61.71
2023-03-24T21:09:38.277Z,61.88
2023-03-24T21:12:07.655Z,61.95
2023-03-24T21:14:36.025Z,61.78
2023-03-24T21:17:04.692Z,61.87
2023-03-24T21:19:34.505Z,61.92
2023-03-24T21:22:03.326Z,61.52
2023-03-24T21:24:31.727Z,61.09
2023-03-24T21:27:01.028Z,60.55
2023-03-24T21:29:29.945Z,60.32
2023-03-24T21:31:58.331Z,60.67
2023-03-24T21:34:26.706Z,60.88
2023-03-24T21:36:56.881Z,60.69
2023-03-24T21:39:25.317Z,60.71
2023-03-24T21:41:54.814Z,60.62
2023-03-24T21:44:23.470Z,60.43
2023-03-24T21:46:54.330Z,60.41
2023-03-24T21:49:22.891Z,60.17
2023-03-24T21:51:54.966Z,59.15
2023-03-24T21:54:26.967Z,59.19
2023-03-24T21:56:55.534Z,59.23
2023-03-24T21:59:24.296Z,59.59
2023-03-24T22:01:53.556Z,59.61
2023-03-24T22:04:22.068Z,59.01
2023-03-24T22:06:50.369Z,59.02
2023-03-24T22:09:19.226Z,59.42
2023-03-24T22:11:49.137Z,59.48
2023-03-24T22:14:19.248Z,59.30
2023-03-24T22:16:47.607Z,59.47
2023-03-24T22:19:16.053Z,59.42
2023-03-24T22:21:44.654Z,59.60
2023-03-24T22:24:12.919Z,59.34
2023-03-24T22:26:41.233Z,58.80
2023-03-24T22:29:11.212Z,58.73
2023-03-24T22:31:42.818Z,59.03
2023-03-24T22:34:11.614Z,59.04
2023-03-24T22:36:40.195Z,59.26
2023-03-24T22:39:08.561Z,59.62
2023-03-24T22:41:36.911Z,59.14
2023-03-24T22:44:05.425Z,59.16
2023-03-24T22:46:35.284Z,59.17
2023-03-24T22:49:03.639Z,58.81
2023-03-24T22:51:31.925Z,59.12
2023-03-24T22:54:02.343Z,59.21
2023-03-24T22:56:30.942Z,58.95
2023-03-24T22:58:59.351Z,59.01
2023-03-24T23:01:27.743Z,59.22
2023-03-24T23:03:57.641Z,59.15
2023-03-24T23:06:27.780Z,58.75
2023-03-24T23:08:56.119Z,58.64
2023-03-24T23:11:24.467Z,58.87
2023-03-24T23:13:52.744Z,58.91
2023-03-24T23:16:22.038Z,58.14
2023-03-24T23:18:51.730Z,58.29
2023-03-24T23:21:21.694Z,58.13
2023-03-24T23:23:50.044Z,56.44
2023-03-24T23:26:25.446Z,57.28
2023-03-24T23:28:55.240Z,57.37
2023-03-24T23:31:25.806Z,57.39
2023-03-24T23:33:56.230Z,57.80
2023-03-24T23:36:28.500Z,57.91
2023-03-24T23:38:57.629Z,58.17
2023-03-24T23:41:26.401Z,57.97
2023-03-24T23:43:55.271Z,58.24
2023-03-24T23:46:24.625Z,57.84
2023-03-24T23:48:53.378Z,57.98
2023-03-24T23:51:22.377Z,57.53
2023-03-24T23:53:52.263Z,58.02
2023-03-24T23:56:21.812Z,58.16
2023-03-24T23:58:50.258Z,58.25
